Home   Weather   Halifax   Past weeks
Flag for United Kingdom

Past Weather in Halifax, England, United Kingdom — Yesterday and Last 2 Weeks

Currently: 32 °F. Fog. (Weather station: Manchester Airport, United Kingdom). See more current weather

Past Weather in Halifax — Graph

°F

Halifax Temperature Yesterday

Maximum temperature yesterday: 52 °F (at 2:20 pm)
Minimum temperature yesterday: 27 °F (at 4:50 am)
Average temperature yesterday: 41 °F

High & Low Weather Summary for the Past Weeks

 TemperatureHumidityPressure
High68 °F (Mar 30, 2:50 pm)100% (Apr 4, 2:20 am)30.57 "Hg (Apr 4, 2:20 am)
Low25 °F (Apr 7, 12:20 am)26% (Apr 5, 12:20 pm)29.86 "Hg (Apr 8, 11:20 pm)
Average43 °F68%30.22 "Hg
* Reported Mar 30 2:20 am — Apr 14 2:20 am, Halifax. Weather by CustomWeather, © 2021

Note: Actual official high and low records may vary slightly from our data, if they occured in-between our weather recording intervals... More about our weather records

Halifax Weather History for the Previous 24 Hours

Scroll right to see more
 ConditionsComfort  
Time TempWeatherWind HumidityBarometerVisibility
2:20 am
Wed, Apr 14
34 °FChilly.2 mph93%30.51 "HgN/A
1:50 am34 °FChilly.1 mph93%30.51 "HgN/A
1:20 am34 °FChilly.2 mph93%30.51 "HgN/A
12:50 am36 °FChilly.1 mph87%30.51 "HgN/A
12:20 am36 °FChilly.1 mph93%30.51 "HgN/A
11:50 pm
Tue, Apr 13
39 °FChilly.1 mph81%30.51 "HgN/A
11:20 pm43 °FQuite cool.1 mph76%30.51 "HgN/A
10:50 pm45 °FQuite cool.2 mph71%30.51 "HgN/A
10:20 pm45 °FQuite cool.1 mph71%30.51 "HgN/A
9:50 pm45 °FQuite cool.3 mph71%30.48 "HgN/A
8:50 pm46 °FCool.5 mph66%30.48 "HgN/A
8:20 pm48 °FCool.7 mph62%30.48 "HgN/A
7:50 pm50 °FCool.3 mph50%30.45 "HgN/A
7:20 pm50 °FCool.5 mph50%30.45 "HgN/A
6:50 pm50 °FCool.5 mph50%30.45 "HgN/A
6:20 pm50 °FScattered clouds.6 mph50%30.45 "HgN/A
5:50 pm52 °FScattered clouds.6 mph47%30.45 "HgN/A
5:20 pm52 °FCool.5 mph47%30.45 "HgN/A
4:50 pm52 °FScattered clouds.6 mph47%30.48 "HgN/A
4:20 pm50 °FScattered clouds.2 mph50%30.48 "HgN/A
3:50 pm52 °FPartly sunny.5 mph47%30.48 "HgN/A
3:20 pm50 °FPartly sunny.1 mph50%30.48 "HgN/A
2:50 pm50 °FPartly sunny.2 mph50%30.48 "HgN/A
2:20 pm52 °FScattered clouds.6 mph50%30.48 "HgN/A
1:50 pm50 °FPassing clouds.3 mph50%30.48 "HgN/A
1:20 pm50 °FCool.3 mph50%30.51 "HgN/A
12:50 pm48 °FPassing clouds.2 mph54%30.51 "HgN/A
12:20 pm48 °FScattered clouds.3 mph54%30.51 "HgN/A
11:50 am48 °FCool.3 mph54%30.51 "HgN/A
11:20 am46 °FCool.3 mph62%30.51 "HgN/A
10:50 am46 °FCool.2 mph57%30.51 "HgN/A
10:20 am45 °FQuite cool.3 mph61%30.51 "HgN/A
9:50 am43 °FQuite cool.3 mph61%30.51 "HgN/A
9:20 am41 °FQuite cool.2 mph66%30.51 "HgN/A
8:50 am39 °FChilly.2 mph70%30.51 "HgN/A
8:20 am37 °FChilly.1 mph70%30.51 "HgN/A
7:50 am36 °FChilly.2 mph75%30.51 "HgN/A
7:20 am30 °FChilly.3 mph86%30.51 "HgN/A
6:50 am27 °FChilly.2 mph93%30.48 "HgN/A
6:20 am27 °FChilly.2 mph86%30.48 "HgN/A
5:50 am28 °FChilly.3 mph86%30.48 "HgN/A
5:20 am27 °FChilly.3 mph93%30.48 "HgN/A
4:50 am27 °FChilly.1 mph86%30.48 "HgN/A
4:20 am28 °FChilly.2 mph86%30.48 "HgN/A
3:50 am28 °FChilly.3 mph86%30.48 "HgN/A
3:20 am28 °FChilly.2 mph86%30.48 "HgN/A
Weather by CustomWeather, © 2021

See weather overview